sensor_id;sensor_type;location;lat;lon;timestamp;temperature;humidity
59303;DHT22;45074;52.764;6.896;2022-10-16T00:00:03;14.00;99.90
59303;DHT22;45074;52.764;6.896;2022-10-16T00:02:28;12.80;99.90
59303;DHT22;45074;52.764;6.896;2022-10-16T00:04:54;12.90;99.90
59303;DHT22;45074;52.764;6.896;2022-10-16T00:07:20;13.30;99.90
59303;DHT22;45074;52.764;6.896;2022-10-16T00:09:46;13.20;99.90
59303;DHT22;45074;52.764;6.896;2022-10-16T00:12:11;13.30;99.90
59303;DHT22;45074;52.764;6.896;2022-10-16T00:14:37;12.80;99.90
59303;DHT22;45074;52.764;6.896;2022-10-16T00:17:03;13.00;99.90
59303;DHT22;45074;52.764;6.896;2022-10-16T00:19:28;13.10;99.90
59303;DHT22;45074;52.764;6.896;2022-10-16T00:21:54;13.90;99.90
59303;DHT22;45074;52.764;6.896;2022-10-16T00:26:49;13.20;99.90
59303;DHT22;45074;52.764;6.896;2022-10-16T00:29:15;12.10;99.90
59303;DHT22;45074;52.764;6.896;2022-10-16T00:31:40;13.80;99.90
59303;DHT22;45074;52.764;6.896;2022-10-16T00:34:06;11.00;99.90
59303;DHT22;45074;52.764;6.896;2022-10-16T00:36:31;13.40;99.90
59303;DHT22;45074;52.764;6.896;2022-10-16T00:38:57;12.60;99.90
59303;DHT22;45074;52.764;6.896;2022-10-16T00:41:26;12.90;99.90
59303;DHT22;45074;52.764;6.896;2022-10-16T00:43:55;12.90;99.90
59303;DHT22;45074;52.764;6.896;2022-10-16T00:46:40;12.60;99.90
59303;DHT22;45074;52.764;6.896;2022-10-16T00:49:10;11.40;99.90
59303;DHT22;45074;52.764;6.896;2022-10-16T00:51:39;13.10;99.90
59303;DHT22;45074;52.764;6.896;2022-10-16T00:54:13;13.30;99.90
59303;DHT22;45074;52.764;6.896;2022-10-16T00:56:40;12.80;99.90
59303;DHT22;45074;52.764;6.896;2022-10-16T00:59:15;13.70;99.90
59303;DHT22;45074;52.764;6.896;2022-10-16T01:01:41;13.00;99.90
59303;DHT22;45074;52.764;6.896;2022-10-16T01:04:06;12.70;99.90
59303;DHT22;45074;52.764;6.896;2022-10-16T01:06:56;12.20;99.90
59303;DHT22;45074;52.764;6.896;2022-10-16T01:17:47;11.40;99.90
59303;DHT22;45074;52.764;6.896;2022-10-16T01:20:44;13.60;99.90
59303;DHT22;45074;52.764;6.896;2022-10-16T01:26:18;13.60;99.90
59303;DHT22;45074;52.764;6.896;2022-10-16T01:28:54;12.80;99.90
59303;DHT22;45074;52.764;6.896;2022-10-16T01:31:26;12.70;99.90
59303;DHT22;45074;52.764;6.896;2022-10-16T01:34:20;12.70;99.90
59303;DHT22;45074;52.764;6.896;2022-10-16T01:37:02;13.10;99.90
59303;DHT22;45074;52.764;6.896;2022-10-16T01:39:32;13.10;99.90
59303;DHT22;45074;52.764;6.896;2022-10-16T01:42:08;12.70;99.90
59303;DHT22;45074;52.764;6.896;2022-10-16T01:44:35;12.70;99.90
59303;DHT22;45074;52.764;6.896;2022-10-16T01:47:02;12.70;99.90
59303;DHT22;45074;52.764;6.896;2022-10-16T01:49:32;13.70;99.90
59303;DHT22;45074;52.764;6.896;2022-10-16T01:52:00;12.80;99.90
59303;DHT22;45074;52.764;6.896;2022-10-16T01:54:31;12.70;99.90
59303;DHT22;45074;52.764;6.896;2022-10-16T01:56:59;12.40;99.90
59303;DHT22;45074;52.764;6.896;2022-10-16T01:59:28;13.10;99.90
59303;DHT22;45074;52.764;6.896;2022-10-16T02:01:59;13.10;99.90
59303;DHT22;45074;52.764;6.896;2022-10-16T02:04:36;12.80;99.90
59303;DHT22;45074;52.764;6.896;2022-10-16T02:07:03;13.00;99.90
59303;DHT22;45074;52.764;6.896;2022-10-16T02:09:30;12.50;99.90
59303;DHT22;45074;52.764;6.896;2022-10-16T02:11:59;12.50;99.90
59303;DHT22;45074;52.764;6.896;2022-10-16T02:14:28;10.90;99.90
59303;DHT22;45074;52.764;6.896;2022-10-16T02:16:54;12.30;99.90
59303;DHT22;45074;52.764;6.896;2022-10-16T02:19:21;12.50;99.90
59303;DHT22;45074;52.764;6.896;2022-10-16T02:21:57;12.40;99.90
59303;DHT22;45074;52.764;6.896;2022-10-16T02:24:39;12.50;99.90
59303;DHT22;45074;52.764;6.896;2022-10-16T02:27:11;12.50;99.90
59303;DHT22;45074;52.764;6.896;2022-10-16T02:29:42;12.50;99.90
59303;DHT22;45074;52.764;6.896;2022-10-16T02:32:12;12.40;99.90
59303;DHT22;45074;52.764;6.896;2022-10-16T02:34:39;12.40;99.90
59303;DHT22;45074;52.764;6.896;2022-10-16T02:37:06;12.40;99.90
59303;DHT22;45074;52.764;6.896;2022-10-16T02:39:33;12.40;99.90
59303;DHT22;45074;52.764;6.896;2022-10-16T02:41:59;12.40;99.90
59303;DHT22;45074;52.764;6.896;2022-10-16T02:44:26;12.60;99.90
59303;DHT22;45074;52.764;6.896;2022-10-16T02:46:52;12.50;99.90
59303;DHT22;45074;52.764;6.896;2022-10-16T02:49:17;12.50;99.90
59303;DHT22;45074;52.764;6.896;2022-10-16T02:51:44;12.50;99.90
59303;DHT22;45074;52.764;6.896;2022-10-16T02:54:09;12.50;99.90
59303;DHT22;45074;52.764;6.896;2022-10-16T02:56:35;12.50;99.90
59303;DHT22;45074;52.764;6.896;2022-10-16T02:59:00;12.60;99.90
59303;DHT22;45074;52.764;6.896;2022-10-16T03:01:26;12.50;99.90
59303;DHT22;45074;52.764;6.896;2022-10-16T03:03:52;12.60;99.90
59303;DHT22;45074;52.764;6.896;2022-10-16T03:06:17;12.60;99.90
59303;DHT22;45074;52.764;6.896;2022-10-16T03:08:43;12.70;99.90
59303;DHT22;45074;52.764;6.896;2022-10-16T03:11:08;12.70;99.90
59303;DHT22;45074;52.764;6.896;2022-10-16T03:13:34;12.70;99.90
59303;DHT22;45074;52.764;6.896;2022-10-16T03:16:00;12.70;99.90
59303;DHT22;45074;52.764;6.896;2022-10-16T03:18:25;12.80;99.90
59303;DHT22;45074;52.764;6.896;2022-10-16T03:20:51;12.80;99.90
59303;DHT22;45074;52.764;6.896;2022-10-16T03:23:17;12.80;99.90
59303;DHT22;45074;52.764;6.896;2022-10-16T03:25:42;12.80;99.90
59303;DHT22;45074;52.764;6.896;2022-10-16T03:28:08;13.00;99.90
59303;DHT22;45074;52.764;6.896;2022-10-16T03:30:33;13.00;99.90
59303;DHT22;45074;52.764;6.896;2022-10-16T03:32:59;12.90;99.90
59303;DHT22;45074;52.764;6.896;2022-10-16T03:35:25;12.90;99.90
59303;DHT22;45074;52.764;6.896;2022-10-16T03:37:51;12.90;99.90
59303;DHT22;45074;52.764;6.896;2022-10-16T03:40:17;12.90;99.90
59303;DHT22;45074;52.764;6.896;2022-10-16T03:42:43;13.00;99.90
59303;DHT22;45074;52.764;6.896;2022-10-16T03:45:09;13.00;99.90
59303;DHT22;45074;52.764;6.896;2022-10-16T03:47:35;13.00;99.90
59303;DHT22;45074;52.764;6.896;2022-10-16T03:50:01;13.00;99.90
59303;DHT22;45074;52.764;6.896;2022-10-16T03:52:26;13.10;99.90
59303;DHT22;45074;52.764;6.896;2022-10-16T03:54:52;13.10;99.90
59303;DHT22;45074;52.764;6.896;2022-10-16T03:57:17;13.10;99.90
59303;DHT22;45074;52.764;6.896;2022-10-16T04:02:10;12.70;99.90
59303;DHT22;45074;52.764;6.896;2022-10-16T04:04:35;12.70;99.90
59303;DHT22;45074;52.764;6.896;2022-10-16T04:09:27;12.10;99.90
59303;DHT22;45074;52.764;6.896;2022-10-16T04:11:53;12.90;99.90
59303;DHT22;45074;52.764;6.896;2022-10-16T04:14:18;13.00;99.90
59303;DHT22;45074;52.764;6.896;2022-10-16T04:16:44;13.10;99.90
59303;DHT22;45074;52.764;6.896;2022-10-16T04:19:10;13.10;99.90
59303;DHT22;45074;52.764;6.896;2022-10-16T04:21:36;12.80;99.90
59303;DHT22;45074;52.764;6.896;2022-10-16T04:24:02;12.80;99.90
59303;DHT22;45074;52.764;6.896;2022-10-16T04:26:28;13.40;99.90
59303;DHT22;45074;52.764;6.896;2022-10-16T04:31:20;13.20;99.90
59303;DHT22;45074;52.764;6.896;2022-10-16T04:33:46;11.60;99.90
59303;DHT22;45074;52.764;6.896;2022-10-16T04:36:12;13.20;99.90
59303;DHT22;45074;52.764;6.896;2022-10-16T04:38:38;12.80;99.90
59303;DHT22;45074;52.764;6.896;2022-10-16T04:41:05;13.90;99.90
59303;DHT22;45074;52.764;6.896;2022-10-16T04:43:31;12.20;99.90
59303;DHT22;45074;52.764;6.896;2022-10-16T04:45:56;13.10;99.90
59303;DHT22;45074;52.764;6.896;2022-10-16T04:48:22;12.00;99.90
59303;DHT22;45074;52.764;6.896;2022-10-16T04:50:48;13.10;99.90
59303;DHT22;45074;52.764;6.896;2022-10-16T04:53:14;13.10;99.90
59303;DHT22;45074;52.764;6.896;2022-10-16T04:55:41;11.80;99.90
59303;DHT22;45074;52.764;6.896;2022-10-16T04:58:07;12.90;99.90
59303;DHT22;45074;52.764;6.896;2022-10-16T05:00:33;12.70;99.90
59303;DHT22;45074;52.764;6.896;2022-10-16T05:02:59;12.60;99.90
59303;DHT22;45074;52.764;6.896;2022-10-16T05:05:26;13.20;99.90
59303;DHT22;45074;52.764;6.896;2022-10-16T05:07:52;13.00;99.90
59303;DHT22;45074;52.764;6.896;2022-10-16T05:10:18;13.00;99.90
59303;DHT22;45074;52.764;6.896;2022-10-16T05:12:44;12.90;99.90
59303;DHT22;45074;52.764;6.896;2022-10-16T05:17:36;13.00;99.90
59303;DHT22;45074;52.764;6.896;2022-10-16T05:20:02;13.20;99.90
59303;DHT22;45074;52.764;6.896;2022-10-16T05:22:28;11.50;99.90
59303;DHT22;45074;52.764;6.896;2022-10-16T05:24:54;14.20;99.90
59303;DHT22;45074;52.764;6.896;2022-10-16T05:27:20;12.70;99.90
59303;DHT22;45074;52.764;6.896;2022-10-16T05:29:47;12.80;99.90
59303;DHT22;45074;52.764;6.896;2022-10-16T05:32:13;12.60;99.90
59303;DHT22;45074;52.764;6.896;2022-10-16T05:34:39;12.80;99.90
59303;DHT22;45074;52.764;6.896;2022-10-16T05:37:05;12.60;99.90
59303;DHT22;45074;52.764;6.896;2022-10-16T05:39:31;12.60;99.90
59303;DHT22;45074;52.764;6.896;2022-10-16T05:41:56;12.60;99.90
59303;DHT22;45074;52.764;6.896;2022-10-16T05:44:22;14.20;99.90
59303;DHT22;45074;52.764;6.896;2022-10-16T05:46:48;12.50;99.90
59303;DHT22;45074;52.764;6.896;2022-10-16T05:49:13;12.50;99.90
59303;DHT22;45074;52.764;6.896;2022-10-16T05:51:39;11.40;99.90
59303;DHT22;45074;52.764;6.896;2022-10-16T05:54:05;12.50;99.90
59303;DHT22;45074;52.764;6.896;2022-10-16T05:56:30;11.50;99.90
59303;DHT22;45074;52.764;6.896;2022-10-16T05:58:56;12.20;99.90
59303;DHT22;45074;52.764;6.896;2022-10-16T06:01:22;13.00;99.90
59303;DHT22;45074;52.764;6.896;2022-10-16T06:03:52;11.60;99.90
59303;DHT22;45074;52.764;6.896;2022-10-16T06:06:20;11.90;99.90
59303;DHT22;45074;52.764;6.896;2022-10-16T06:08:47;13.20;99.90
59303;DHT22;45074;52.764;6.896;2022-10-16T06:11:18;12.60;99.90
59303;DHT22;45074;52.764;6.896;2022-10-16T06:13:44;12.90;99.90
59303;DHT22;45074;52.764;6.896;2022-10-16T06:16:12;12.80;99.90
59303;DHT22;45074;52.764;6.896;2022-10-16T06:18:38;12.60;99.90
59303;DHT22;45074;52.764;6.896;2022-10-16T06:21:24;12.60;99.90
59303;DHT22;45074;52.764;6.896;2022-10-16T06:23:50;12.50;99.90
59303;DHT22;45074;52.764;6.896;2022-10-16T06:26:18;12.70;99.90
59303;DHT22;45074;52.764;6.896;2022-10-16T06:28:45;12.60;99.90
59303;DHT22;45074;52.764;6.896;2022-10-16T06:31:11;11.70;99.90
59303;DHT22;45074;52.764;6.896;2022-10-16T06:33:38;12.80;99.90
59303;DHT22;45074;52.764;6.896;2022-10-16T06:36:06;12.60;99.90
59303;DHT22;45074;52.764;6.896;2022-10-16T06:38:33;12.80;99.90
59303;DHT22;45074;52.764;6.896;2022-10-16T06:40:59;12.80;99.90
59303;DHT22;45074;52.764;6.896;2022-10-16T06:43:25;12.70;99.90
59303;DHT22;45074;52.764;6.896;2022-10-16T06:45:55;12.70;99.90
59303;DHT22;45074;52.764;6.896;2022-10-16T06:48:22;14.40;99.90
59303;DHT22;45074;52.764;6.896;2022-10-16T06:53:28;12.70;99.90
59303;DHT22;45074;52.764;6.896;2022-10-16T06:55:54;13.00;99.90
59303;DHT22;45074;52.764;6.896;2022-10-16T07:00:46;12.90;99.90
59303;DHT22;45074;52.764;6.896;2022-10-16T07:03:11;13.40;99.90
59303;DHT22;45074;52.764;6.896;2022-10-16T07:05:43;12.90;99.90
59303;DHT22;45074;52.764;6.896;2022-10-16T07:08:10;11.30;99.90
59303;DHT22;45074;52.764;6.896;2022-10-16T07:10:35;12.30;99.90
59303;DHT22;45074;52.764;6.896;2022-10-16T07:13:01;12.70;99.90
59303;DHT22;45074;52.764;6.896;2022-10-16T07:15:27;13.70;99.90
59303;DHT22;45074;52.764;6.896;2022-10-16T07:17:54;13.00;99.90
59303;DHT22;45074;52.764;6.896;2022-10-16T07:20:19;13.00;99.90
59303;DHT22;45074;52.764;6.896;2022-10-16T07:22:45;13.70;99.90
59303;DHT22;45074;52.764;6.896;2022-10-16T07:25:11;13.00;99.90
59303;DHT22;45074;52.764;6.896;2022-10-16T07:27:37;13.50;99.90
59303;DHT22;45074;52.764;6.896;2022-10-16T07:30:04;12.90;99.90
59303;DHT22;45074;52.764;6.896;2022-10-16T07:32:29;13.10;99.90
59303;DHT22;45074;52.764;6.896;2022-10-16T07:34:56;12.60;99.90
59303;DHT22;45074;52.764;6.896;2022-10-16T07:37:22;13.10;99.90
59303;DHT22;45074;52.764;6.896;2022-10-16T07:39:47;13.80;99.90
59303;DHT22;45074;52.764;6.896;2022-10-16T07:42:13;13.20;99.90
59303;DHT22;45074;52.764;6.896;2022-10-16T07:44:38;13.30;99.90
59303;DHT22;45074;52.764;6.896;2022-10-16T07:47:05;11.80;99.90
59303;DHT22;45074;52.764;6.896;2022-10-16T07:49:31;14.10;99.90
59303;DHT22;45074;52.764;6.896;2022-10-16T07:51:57;13.40;99.90
59303;DHT22;45074;52.764;6.896;2022-10-16T07:54:22;13.00;99.90
59303;DHT22;45074;52.764;6.896;2022-10-16T07:56:48;14.70;99.90
59303;DHT22;45074;52.764;6.896;2022-10-16T07:59:14;13.60;99.90
59303;DHT22;45074;52.764;6.896;2022-10-16T08:01:40;14.00;99.90
59303;DHT22;45074;52.764;6.896;2022-10-16T08:04:08;13.20;99.90
59303;DHT22;45074;52.764;6.896;2022-10-16T08:06:38;13.20;99.90
59303;DHT22;45074;52.764;6.896;2022-10-16T08:09:06;13.70;99.90
59303;DHT22;45074;52.764;6.896;2022-10-16T08:11:32;13.50;99.90
59303;DHT22;45074;52.764;6.896;2022-10-16T08:13:57;13.70;99.90
59303;DHT22;45074;52.764;6.896;2022-10-16T08:16:23;13.90;99.90
59303;DHT22;45074;52.764;6.896;2022-10-16T08:18:49;13.80;99.90
59303;DHT22;45074;52.764;6.896;2022-10-16T08:21:18;15.50;99.90
59303;DHT22;45074;52.764;6.896;2022-10-16T08:23:44;13.80;99.90
59303;DHT22;45074;52.764;6.896;2022-10-16T08:26:11;13.90;99.90
59303;DHT22;45074;52.764;6.896;2022-10-16T08:28:37;13.70;99.90
59303;DHT22;45074;52.764;6.896;2022-10-16T08:31:07;13.90;99.90
59303;DHT22;45074;52.764;6.896;2022-10-16T08:33:33;13.70;99.90
59303;DHT22;45074;52.764;6.896;2022-10-16T08:36:01;14.30;99.90
59303;DHT22;45074;52.764;6.896;2022-10-16T08:38:27;14.20;99.90
59303;DHT22;45074;52.764;6.896;2022-10-16T08:41:10;13.60;99.90
59303;DHT22;45074;52.764;6.896;2022-10-16T08:46:48;12.90;99.90
59303;DHT22;45074;52.764;6.896;2022-10-16T08:49:17;14.30;99.90
59303;DHT22;45074;52.764;6.896;2022-10-16T08:51:43;14.80;99.90
59303;DHT22;45074;52.764;6.896;2022-10-16T08:54:15;16.10;99.90
59303;DHT22;45074;52.764;6.896;2022-10-16T08:56:44;14.60;99.90
59303;DHT22;45074;52.764;6.896;2022-10-16T08:59:10;15.20;99.90
59303;DHT22;45074;52.764;6.896;2022-10-16T09:01:41;14.60;99.90
59303;DHT22;45074;52.764;6.896;2022-10-16T09:07:14;14.90;99.90
59303;DHT22;45074;52.764;6.896;2022-10-16T09:18:12;14.20;99.90
59303;DHT22;45074;52.764;6.896;2022-10-16T09:23:21;14.70;99.90
59303;DHT22;45074;52.764;6.896;2022-10-16T09:25:48;14.70;99.90
59303;DHT22;45074;52.764;6.896;2022-10-16T09:28:15;14.90;99.90
59303;DHT22;45074;52.764;6.896;2022-10-16T09:30:41;15.00;99.90
59303;DHT22;45074;52.764;6.896;2022-10-16T09:33:09;15.00;99.90
59303;DHT22;45074;52.764;6.896;2022-10-16T09:35:38;15.40;99.90
59303;DHT22;45074;52.764;6.896;2022-10-16T09:38:06;15.50;99.90
59303;DHT22;45074;52.764;6.896;2022-10-16T09:40:39;16.30;99.90
59303;DHT22;45074;52.764;6.896;2022-10-16T09:43:20;15.60;99.90
59303;DHT22;45074;52.764;6.896;2022-10-16T09:46:35;15.60;99.90
59303;DHT22;45074;52.764;6.896;2022-10-16T09:49:26;15.70;99.90
59303;DHT22;45074;52.764;6.896;2022-10-16T09:52:11;14.20;99.90
59303;DHT22;45074;52.764;6.896;2022-10-16T09:54:37;16.10;99.90
59303;DHT22;45074;52.764;6.896;2022-10-16T09:57:13;15.80;99.90
59303;DHT22;45074;52.764;6.896;2022-10-16T09:59:59;15.80;99.90
59303;DHT22;45074;52.764;6.896;2022-10-16T10:02:35;15.90;99.90
59303;DHT22;45074;52.764;6.896;2022-10-16T10:05:04;15.50;99.90
59303;DHT22;45074;52.764;6.896;2022-10-16T10:07:42;15.60;99.90
59303;DHT22;45074;52.764;6.896;2022-10-16T10:10:29;16.00;99.90
59303;DHT22;45074;52.764;6.896;2022-10-16T10:12:55;16.00;99.90
59303;DHT22;45074;52.764;6.896;2022-10-16T10:15:22;16.00;99.90
59303;DHT22;45074;52.764;6.896;2022-10-16T10:22:53;15.50;99.90
59303;DHT22;45074;52.764;6.896;2022-10-16T10:25:33;16.10;99.90
59303;DHT22;45074;52.764;6.896;2022-10-16T10:36:16;16.10;99.90
59303;DHT22;45074;52.764;6.896;2022-10-16T10:38:50;16.20;99.90
59303;DHT22;45074;52.764;6.896;2022-10-16T10:46:49;16.40;99.90
59303;DHT22;45074;52.764;6.896;2022-10-16T10:54:53;16.60;99.90
59303;DHT22;45074;52.764;6.896;2022-10-16T10:57:29;16.70;99.90
59303;DHT22;45074;52.764;6.896;2022-10-16T11:00:21;16.50;99.90
59303;DHT22;45074;52.764;6.896;2022-10-16T11:10:47;16.90;99.90
59303;DHT22;45074;52.764;6.896;2022-10-16T11:13:31;16.90;99.90
59303;DHT22;45074;52.764;6.896;2022-10-16T11:16:02;17.00;99.90
59303;DHT22;45074;52.764;6.896;2022-10-16T11:18:52;17.40;99.90
59303;DHT22;45074;52.764;6.896;2022-10-16T11:21:17;17.10;99.90
59303;DHT22;45074;52.764;6.896;2022-10-16T11:26:30;17.40;99.90
59303;DHT22;45074;52.764;6.896;2022-10-16T11:28:58;17.60;99.90
59303;DHT22;45074;52.764;6.896;2022-10-16T11:31:46;17.60;99.90
59303;DHT22;45074;52.764;6.896;2022-10-16T11:34:34;17.70;99.90
59303;DHT22;45074;52.764;6.896;2022-10-16T11:39:33;17.60;97.70
59303;DHT22;45074;52.764;6.896;2022-10-16T11:42:03;17.60;97.00
59303;DHT22;45074;52.764;6.896;2022-10-16T11:49:56;17.30;97.80
59303;DHT22;45074;52.764;6.896;2022-10-16T11:52:40;17.40;97.80
59303;DHT22;45074;52.764;6.896;2022-10-16T11:55:16;16.90;96.40
59303;DHT22;45074;52.764;6.896;2022-10-16T11:57:57;16.80;95.80
59303;DHT22;45074;52.764;6.896;2022-10-16T12:00:46;17.20;96.70
59303;DHT22;45074;52.764;6.896;2022-10-16T12:03:34;17.50;95.90
59303;DHT22;45074;52.764;6.896;2022-10-16T12:06:40;18.30;94.70
59303;DHT22;45074;52.764;6.896;2022-10-16T12:09:25;19.10;94.10
59303;DHT22;45074;52.764;6.896;2022-10-16T12:11:51;20.60;99.90
59303;DHT22;45074;52.764;6.896;2022-10-16T12:16:59;19.60;90.00
59303;DHT22;45074;52.764;6.896;2022-10-16T12:19:28;21.60;96.60
59303;DHT22;45074;52.764;6.896;2022-10-16T12:21:59;21.30;85.40
59303;DHT22;45074;52.764;6.896;2022-10-16T12:24:38;21.10;94.10
59303;DHT22;45074;52.764;6.896;2022-10-16T12:27:06;21.20;92.70
59303;DHT22;45074;52.764;6.896;2022-10-16T12:29:42;21.70;92.40
59303;DHT22;45074;52.764;6.896;2022-10-16T12:32:29;22.20;77.80
59303;DHT22;45074;52.764;6.896;2022-10-16T12:34:55;22.50;74.10
59303;DHT22;45074;52.764;6.896;2022-10-16T12:37:28;24.30;89.20
59303;DHT22;45074;52.764;6.896;2022-10-16T12:39:56;23.80;74.40
59303;DHT22;45074;52.764;6.896;2022-10-16T12:44:52;24.00;83.90
59303;DHT22;45074;52.764;6.896;2022-10-16T12:47:37;21.90;81.00
59303;DHT22;45074;52.764;6.896;2022-10-16T12:50:23;24.10;82.20
59303;DHT22;45074;52.764;6.896;2022-10-16T12:52:49;23.20;72.60
59303;DHT22;45074;52.764;6.896;2022-10-16T12:55:17;24.20;62.40
59303;DHT22;45074;52.764;6.896;2022-10-16T13:00:45;23.80;74.30
59303;DHT22;45074;52.764;6.896;2022-10-16T13:09:00;24.40;57.60
59303;DHT22;45074;52.764;6.896;2022-10-16T13:11:56;23.90;71.20
59303;DHT22;45074;52.764;6.896;2022-10-16T13:14:46;21.90;70.10
59303;DHT22;45074;52.764;6.896;2022-10-16T13:17:37;24.00;71.60
59303;DHT22;45074;52.764;6.896;2022-10-16T13:20:34;23.80;69.30
59303;DHT22;45074;52.764;6.896;2022-10-16T13:24:07;24.40;64.20
59303;DHT22;45074;52.764;6.896;2022-10-16T13:28:46;24.10;57.90
59303;DHT22;45074;52.764;6.896;2022-10-16T13:31:19;24.60;61.40
59303;DHT22;45074;52.764;6.896;2022-10-16T13:33:48;24.50;68.70
59303;DHT22;45074;52.764;6.896;2022-10-16T13:36:25;23.40;67.80
59303;DHT22;45074;52.764;6.896;2022-10-16T13:39:10;24.80;66.80
59303;DHT22;45074;52.764;6.896;2022-10-16T13:41:37;26.60;65.80
59303;DHT22;45074;52.764;6.896;2022-10-16T13:46:29;25.40;53.40
59303;DHT22;45074;52.764;6.896;2022-10-16T14:06:36;25.70;61.10
59303;DHT22;45074;52.764;6.896;2022-10-16T14:09:26;24.80;62.20
59303;DHT22;45074;52.764;6.896;2022-10-16T14:12:02;23.20;62.70
59303;DHT22;45074;52.764;6.896;2022-10-16T14:14:43;24.10;52.10
59303;DHT22;45074;52.764;6.896;2022-10-16T14:17:24;24.00;96.00
59303;DHT22;45074;52.764;6.896;2022-10-16T14:19:55;23.90;85.20
59303;DHT22;45074;52.764;6.896;2022-10-16T14:22:37;23.90;74.00
59303;DHT22;45074;52.764;6.896;2022-10-16T14:25:27;24.40;68.10
59303;DHT22;45074;52.764;6.896;2022-10-16T14:30:23;24.20;91.40
59303;DHT22;45074;52.764;6.896;2022-10-16T14:33:00;23.50;96.20
59303;DHT22;45074;52.764;6.896;2022-10-16T14:35:46;23.50;56.30
59303;DHT22;45074;52.764;6.896;2022-10-16T14:38:20;23.90;56.30
59303;DHT22;45074;52.764;6.896;2022-10-16T14:40:49;23.70;56.30
59303;DHT22;45074;52.764;6.896;2022-10-16T14:43:42;23.80;57.10
59303;DHT22;45074;52.764;6.896;2022-10-16T14:46:18;24.00;57.50
59303;DHT22;45074;52.764;6.896;2022-10-16T14:48:49;23.90;68.20
59303;DHT22;45074;52.764;6.896;2022-10-16T14:51:17;23.70;63.60
59303;DHT22;45074;52.764;6.896;2022-10-16T14:53:44;22.50;73.70
59303;DHT22;45074;52.764;6.896;2022-10-16T14:56:19;22.00;71.20
59303;DHT22;45074;52.764;6.896;2022-10-16T14:58:47;22.80;72.80
59303;DHT22;45074;52.764;6.896;2022-10-16T15:01:12;22.20;73.10
59303;DHT22;45074;52.764;6.896;2022-10-16T15:03:38;22.50;74.50
59303;DHT22;45074;52.764;6.896;2022-10-16T15:06:13;21.60;75.00
59303;DHT22;45074;52.764;6.896;2022-10-16T15:08:39;21.70;76.50
59303;DHT22;45074;52.764;6.896;2022-10-16T15:11:05;19.90;77.30
59303;DHT22;45074;52.764;6.896;2022-10-16T15:13:34;21.20;65.60
59303;DHT22;45074;52.764;6.896;2022-10-16T15:16:00;21.30;80.80
59303;DHT22;45074;52.764;6.896;2022-10-16T15:18:26;19.10;82.40
59303;DHT22;45074;52.764;6.896;2022-10-16T15:20:52;20.00;85.30
59303;DHT22;45074;52.764;6.896;2022-10-16T15:23:21;19.30;86.00
59303;DHT22;45074;52.764;6.896;2022-10-16T15:25:51;21.10;88.60
59303;DHT22;45074;52.764;6.896;2022-10-16T15:28:17;19.70;90.10
59303;DHT22;45074;52.764;6.896;2022-10-16T15:30:44;19.60;90.10
59303;DHT22;45074;52.764;6.896;2022-10-16T15:33:17;20.10;90.80
59303;DHT22;45074;52.764;6.896;2022-10-16T15:35:46;18.10;91.70
59303;DHT22;45074;52.764;6.896;2022-10-16T15:38:13;19.60;92.50
59303;DHT22;45074;52.764;6.896;2022-10-16T15:40:40;19.40;92.90
59303;DHT22;45074;52.764;6.896;2022-10-16T15:43:06;18.80;81.50
59303;DHT22;45074;52.764;6.896;2022-10-16T15:45:32;19.30;94.00
59303;DHT22;45074;52.764;6.896;2022-10-16T15:47:58;19.30;93.90
59303;DHT22;45074;52.764;6.896;2022-10-16T15:50:24;19.50;94.30
59303;DHT22;45074;52.764;6.896;2022-10-16T15:52:50;19.30;94.60
59303;DHT22;45074;52.764;6.896;2022-10-16T15:55:16;19.50;95.00
59303;DHT22;45074;52.764;6.896;2022-10-16T15:57:44;18.60;95.50
59303;DHT22;45074;52.764;6.896;2022-10-16T16:00:12;18.60;96.20
59303;DHT22;45074;52.764;6.896;2022-10-16T16:02:39;19.20;96.90
59303;DHT22;45074;52.764;6.896;2022-10-16T16:05:06;18.80;97.80
59303;DHT22;45074;52.764;6.896;2022-10-16T16:07:37;18.60;92.80
59303;DHT22;45074;52.764;6.896;2022-10-16T16:10:05;18.50;95.00
59303;DHT22;45074;52.764;6.896;2022-10-16T16:12:32;18.40;90.70
59303;DHT22;45074;52.764;6.896;2022-10-16T16:14:57;17.00;98.40
59303;DHT22;45074;52.764;6.896;2022-10-16T16:17:23;18.00;99.30
59303;DHT22;45074;52.764;6.896;2022-10-16T16:19:50;18.20;99.90
59303;DHT22;45074;52.764;6.896;2022-10-16T16:22:15;16.10;99.40
59303;DHT22;45074;52.764;6.896;2022-10-16T16:24:41;17.70;99.90
59303;DHT22;45074;52.764;6.896;2022-10-16T16:27:07;16.00;99.90
59303;DHT22;45074;52.764;6.896;2022-10-16T16:29:33;17.00;99.90
59303;DHT22;45074;52.764;6.896;2022-10-16T16:32:00;17.60;95.30
59303;DHT22;45074;52.764;6.896;2022-10-16T16:34:26;16.50;99.90
59303;DHT22;45074;52.764;6.896;2022-10-16T16:44:11;17.00;98.00
59303;DHT22;45074;52.764;6.896;2022-10-16T16:46:37;15.70;99.90
59303;DHT22;45074;52.764;6.896;2022-10-16T16:49:05;16.90;99.90
59303;DHT22;45074;52.764;6.896;2022-10-16T16:51:32;18.10;99.90
59303;DHT22;45074;52.764;6.896;2022-10-16T16:53:58;16.80;97.30
59303;DHT22;45074;52.764;6.896;2022-10-16T16:56:25;16.50;95.50
59303;DHT22;45074;52.764;6.896;2022-10-16T16:58:53;16.50;99.90
59303;DHT22;45074;52.764;6.896;2022-10-16T17:01:20;16.30;99.90
59303;DHT22;45074;52.764;6.896;2022-10-16T17:03:48;16.20;99.90
59303;DHT22;45074;52.764;6.896;2022-10-16T17:06:15;16.10;99.90
59303;DHT22;45074;52.764;6.896;2022-10-16T17:11:12;15.90;99.90
59303;DHT22;45074;52.764;6.896;2022-10-16T17:13:38;14.90;99.90
59303;DHT22;45074;52.764;6.896;2022-10-16T17:16:05;15.80;96.90
59303;DHT22;45074;52.764;6.896;2022-10-16T17:18:32;15.40;99.90
59303;DHT22;45074;52.764;6.896;2022-10-16T17:21:03;14.90;99.90
59303;DHT22;45074;52.764;6.896;2022-10-16T17:23:30;15.70;99.90
59303;DHT22;45074;52.764;6.896;2022-10-16T17:25:56;15.90;99.90
59303;DHT22;45074;52.764;6.896;2022-10-16T17:28:22;14.60;99.90
59303;DHT22;45074;52.764;6.896;2022-10-16T17:30:47;15.50;99.90
59303;DHT22;45074;52.764;6.896;2022-10-16T17:33:13;15.30;99.90
59303;DHT22;45074;52.764;6.896;2022-10-16T17:35:42;15.20;99.90
59303;DHT22;45074;52.764;6.896;2022-10-16T17:38:08;14.80;99.90
59303;DHT22;45074;52.764;6.896;2022-10-16T17:40:34;14.90;99.90
59303;DHT22;45074;52.764;6.896;2022-10-16T17:43:00;15.10;99.90
59303;DHT22;45074;52.764;6.896;2022-10-16T17:45:26;14.90;99.90
59303;DHT22;45074;52.764;6.896;2022-10-16T17:50:18;14.90;99.90
59303;DHT22;45074;52.764;6.896;2022-10-16T17:52:44;16.60;99.90
59303;DHT22;45074;52.764;6.896;2022-10-16T17:55:10;15.20;99.90
59303;DHT22;45074;52.764;6.896;2022-10-16T17:57:35;16.20;99.90
59303;DHT22;45074;52.764;6.896;2022-10-16T18:00:01;14.60;99.90
59303;DHT22;45074;52.764;6.896;2022-10-16T18:07:21;14.50;99.90
59303;DHT22;45074;52.764;6.896;2022-10-16T18:09:47;13.50;99.90